Jupiter Spirit — A8ZC2 — position and weather

sailwx.info

Track history (hours):
 
Tides and Currents Weather Stations Pressure Air Temp Water Temp Dewpoint Dewpoint Depression Visibility Wind Speed Wind Dir Waves Ship Positions

Jupiter Spirit

Last reported at 2016-May-11 07:32 UTC. Time now 2016-May-25 16:53 UTC.
Position N 32°12' W 117°36'.
Warning: this ship's position is 14 days out of date.

Length 183 m; draft 8.3 m.

Type: Cargo ship. MMSI: 636015173.

Date/timePositionNaut miles runAvg speedWind from/ knotsBaromVisibWave heightAir tempDewpointWater temp
2016-May-11 07:32N 32°12' W 117°36'1818.5
2016-May-11 06:33N 32°29' W 117°43'1818.4
2016-May-11 05:33N 32°46' W 117°51'1818.4
2016-May-11 04:33N 33°03' W 117°59'1211.8
2016-May-11 03:33N 33°14' W 118°04'1211.5
2016-May-11 02:33N 33°25' W 118°09'1611.1
2016-May-11 01:06N 33°40' W 118°15'4 6.8
2016-May-11 00:30N 33°44' W 118°17'2 2.0
2016-May-10 23:34N 33°46' W 118°15'0 0.0
2016-May-10 22:34N 33°46' W 118°15'0 0.0
2016-May-10 21:34N 33°46' W 118°15'0 0.0
2016-May-10 20:34N 33°46' W 118°15'0 0.0
2016-May-10 19:34N 33°46' W 118°15'0 0.0
2016-May-10 18:34N 33°46' W 118°15'0 0.0
2016-May-10 17:34N 33°46' W 118°15'0 0.0
2016-May-10 16:34N 33°46' W 118°15'0 0.0
2016-May-10 15:34N 33°46' W 118°15'0 0.0
2016-May-10 14:34N 33°46' W 118°15'0 0.0
2016-May-10 13:34N 33°46' W 118°15'0 0.0
2016-May-10 12:34N 33°46' W 118°15'0 0.0
2016-May-10 11:34N 33°46' W 118°15'0 0.0
2016-May-10 10:34N 33°46' W 118°15'0 0.0
2016-May-10 09:34N 33°46' W 118°15'0 0.0
2016-May-10 08:34N 33°46' W 118°15'0 0.0
2016-May-10 07:34N 33°46' W 118°15'0 0.0
2016-May-10 06:33N 33°46' W 118°15'0 0.0
2016-May-10 05:34N 33°46' W 118°15'0 0.0
2016-May-10 04:34N 33°46' W 118°15'0 0.0
2016-May-10 03:33N 33°46' W 118°15'0 0.0
2016-May-10 02:34N 33°46' W 118°15'0 0.0
2016-May-10 01:34N 33°46' W 118°15'2 2.3
2016-May-10 00:34N 33°44' W 118°16'17910.0
2016-May-09 06:33N 35°02' W 121°32'1211.9
2016-May-09 05:33N 35°11' W 121°41'1311.9
2016-May-09 04:28N 35°20' W 121°52'1111.7
2016-May-09 03:33N 35°29' W 121°59'8 8.3
2016-May-09 02:33N 35°36' W 122°06'1413.6
2016-May-09 01:33N 35°46' W 122°16'1313.3
2016-May-09 00:33N 35°57' W 122°27'1413.6
2016-May-08 23:33N 36°07' W 122°37'1312.7
2016-May-08 22:33N 36°17' W 122°47'1211.6
2016-May-08 21:32N 36°26' W 122°57'1312.7
2016-May-08 20:32N 36°36' W 123°07'1312.9
2016-May-08 19:33N 36°46' W 123°17'1512.9
2016-May-08 18:23N 36°58' W 123°29'4313.2
2016-May-08 15:06N 37°38' W 123°48'712.9
2016-May-08 14:33N 37°45' W 123°51'1312.7
2016-May-08 13:34N 37°57' W 123°56'1513.6
2016-May-08 12:28N 38°11' W 124°02'1313.7
2016-May-08 11:30N 38°23' W 124°08'18613.3
2016-May-07 21:31N 41°24' W 125°06'1413.5
2016-May-07 20:27N 41°38' W 125°06'1213.6
2016-May-07 19:34N 41°50' W 125°07'1413.9
2016-May-07 18:33N 42°04' W 125°07'1413.7
2016-May-07 17:32N 42°18' W 125°08'1513.7
2016-May-07 16:27N 42°33' W 125°08'5613.8
2016-May-07 12:25N 43°29' W 125°10'1213.7
2016-May-07 11:32N 43°41' W 125°10'1313.6
2016-May-07 10:33N 43°54' W 125°11'1813.9
2016-May-07 09:13N 44°13' W 125°12'913.7
2016-May-07 08:33N 44°22' W 125°12'1313.2
2016-May-07 07:33N 44°35' W 125°12'1413.5
2016-May-07 06:33N 44°48' W 125°13'1413.5
2016-May-07 05:33N 45°02' W 125°13'1413.9
2016-May-07 04:33N 45°16' W 125°14'1413.7
2016-May-07 03:34N 45°29' W 125°14'1413.9
2016-May-07 02:33N 45°43' W 125°15'1313.5
2016-May-07 01:34N 45°57' W 125°15'1413.5
2016-May-07 00:34N 46°10' W 125°16'1413.8
2016-May-06 23:33N 46°24' W 125°16'1414.3
2016-May-06 22:33N 46°38' W 125°17'1414.4
2016-May-06 21:34N 46°53' W 125°17'1514.8
2016-May-06 20:31N 47°08' W 125°18'1414.7
2016-May-06 19:33N 47°22' W 125°18'1514.7
2016-May-06 18:34N 47°37' W 125°19'1414.3
2016-May-06 17:33N 47°51' W 125°19'1615.1
2016-May-06 16:29N 48°07' W 125°20'1414.6
2016-May-06 15:33N 48°20' W 125°12'1514.9
2016-May-06 14:33N 48°31' W 124°56'2517.1
2016-May-06 13:05N 48°24' W 124°20'1116.5
2016-May-06 12:24N 48°20' W 124°04'1315.7
2016-May-06 11:33N 48°16' W 123°45'1312.8
2016-May-06 10:33N 48°20' W 123°26'1111.1
2016-May-06 09:34N 48°26' W 123°12'1616.4
2016-May-06 08:34N 48°43' W 123°14'1111.3
2016-May-06 07:33N 48°53' W 123°07'1514.8
2016-May-06 06:33N 49°06' W 123°20'1110.9
2016-May-06 05:33N 49°08' W 123°04'6 6.0
2016-May-06 04:31N 49°11' W 122°55'0 0.0
2016-May-06 03:31N 49°11' W 122°55'0 0.0
2016-May-06 02:31N 49°11' W 122°55'0 0.0
2016-May-06 01:31N 49°11' W 122°55'0 0.0
2016-May-06 00:31N 49°11' W 122°55'0 0.0
2016-May-05 23:31N 49°11' W 122°55'0 0.0
2016-May-05 22:33N 49°11' W 122°55'6 6.1
2016-May-05 21:33N 49°08' W 123°03'1111.2
2016-May-05 20:33N 49°05' W 123°20'1312.6
2016-May-05 19:34N 48°56' W 123°07'1312.5
2016-May-05 18:33N 48°43' W 123°09'1313.3
2016-May-05 17:34N 48°30' W 123°10'1212.0
2016-May-05 16:33N 48°22' W 123°23'9 8.9
2016-May-05 15:33N 48°14' W 123°30'1211.5
2016-May-05 14:32N 48°13' W 123°48'5012.6
2016-May-05 10:33N 48°29' W 124°60'1413.6
2016-May-05 09:33N 48°29' W 125°20'1414.0
2016-May-05 08:33N 48°28' W 125°41'1414.3
2016-May-05 07:33N 48°29' W 126°03'1414.1
2016-May-05 06:33N 48°29' W 126°24'  
Track history (hours):
 
Tides and Currents Weather Stations Pressure Air Temp Water Temp Dewpoint Dewpoint Depression Visibility Wind Speed Wind Dir Waves Ship Positions

Jupiter Spirit

Last reported at 2016-May-11 07:32 UTC. Time now 2016-May-25 16:53 UTC.
Position N 32°12' W 117°36'.
Warning: this ship's position is 14 days out of date.

Length 183 m; draft 8.3 m.

Type: Cargo ship. MMSI: 636015173.

Date/timePositionNaut miles runAvg speedWind from/ knotsBaromVisibWave heightAir tempDewpointWater temp
2016-May-11 07:32N 32°12' W 117°36'1818.5
2016-May-11 06:33N 32°29' W 117°43'1818.4
2016-May-11 05:33N 32°46' W 117°51'1818.4
2016-May-11 04:33N 33°03' W 117°59'1211.8
2016-May-11 03:33N 33°14' W 118°04'1211.5
2016-May-11 02:33N 33°25' W 118°09'1611.1
2016-May-11 01:06N 33°40' W 118°15'4 6.8
2016-May-11 00:30N 33°44' W 118°17'2 2.0
2016-May-10 23:34N 33°46' W 118°15'0 0.0
2016-May-10 22:34N 33°46' W 118°15'0 0.0
2016-May-10 21:34N 33°46' W 118°15'0 0.0
2016-May-10 20:34N 33°46' W 118°15'0 0.0
2016-May-10 19:34N 33°46' W 118°15'0 0.0
2016-May-10 18:34N 33°46' W 118°15'0 0.0
2016-May-10 17:34N 33°46' W 118°15'0 0.0
2016-May-10 16:34N 33°46' W 118°15'0 0.0
2016-May-10 15:34N 33°46' W 118°15'0 0.0
2016-May-10 14:34N 33°46' W 118°15'0 0.0
2016-May-10 13:34N 33°46' W 118°15'0 0.0
2016-May-10 12:34N 33°46' W 118°15'0 0.0
2016-May-10 11:34N 33°46' W 118°15'0 0.0
2016-May-10 10:34N 33°46' W 118°15'0 0.0
2016-May-10 09:34N 33°46' W 118°15'0 0.0
2016-May-10 08:34N 33°46' W 118°15'0 0.0
2016-May-10 07:34N 33°46' W 118°15'0 0.0
2016-May-10 06:33N 33°46' W 118°15'0 0.0
2016-May-10 05:34N 33°46' W 118°15'0 0.0
2016-May-10 04:34N 33°46' W 118°15'0 0.0
2016-May-10 03:33N 33°46' W 118°15'0 0.0
2016-May-10 02:34N 33°46' W 118°15'0 0.0
2016-May-10 01:34N 33°46' W 118°15'2 2.3
2016-May-10 00:34N 33°44' W 118°16'17910.0
2016-May-09 06:33N 35°02' W 121°32'1211.9
2016-May-09 05:33N 35°11' W 121°41'1311.9
2016-May-09 04:28N 35°20' W 121°52'1111.7
2016-May-09 03:33N 35°29' W 121°59'8 8.3
2016-May-09 02:33N 35°36' W 122°06'1413.6
2016-May-09 01:33N 35°46' W 122°16'1313.3
2016-May-09 00:33N 35°57' W 122°27'1413.6
2016-May-08 23:33N 36°07' W 122°37'1312.7
2016-May-08 22:33N 36°17' W 122°47'1211.6
2016-May-08 21:32N 36°26' W 122°57'1312.7
2016-May-08 20:32N 36°36' W 123°07'1312.9
2016-May-08 19:33N 36°46' W 123°17'1512.9
2016-May-08 18:23N 36°58' W 123°29'4313.2
2016-May-08 15:06N 37°38' W 123°48'712.9
2016-May-08 14:33N 37°45' W 123°51'1312.7
2016-May-08 13:34N 37°57' W 123°56'1513.6
2016-May-08 12:28N 38°11' W 124°02'1313.7
2016-May-08 11:30N 38°23' W 124°08'18613.3
2016-May-07 21:31N 41°24' W 125°06'1413.5
2016-May-07 20:27N 41°38' W 125°06'1213.6
2016-May-07 19:34N 41°50' W 125°07'1413.9
2016-May-07 18:33N 42°04' W 125°07'1413.7
2016-May-07 17:32N 42°18' W 125°08'1513.7
2016-May-07 16:27N 42°33' W 125°08'5613.8
2016-May-07 12:25N 43°29' W 125°10'1213.7
2016-May-07 11:32N 43°41' W 125°10'1313.6
2016-May-07 10:33N 43°54' W 125°11'1813.9
2016-May-07 09:13N 44°13' W 125°12'913.7
2016-May-07 08:33N 44°22' W 125°12'1313.2
2016-May-07 07:33N 44°35' W 125°12'1413.5
2016-May-07 06:33N 44°48' W 125°13'1413.5
2016-May-07 05:33N 45°02' W 125°13'1413.9
2016-May-07 04:33N 45°16' W 125°14'1413.7
2016-May-07 03:34N 45°29' W 125°14'1413.9
2016-May-07 02:33N 45°43' W 125°15'1313.5
2016-May-07 01:34N 45°57' W 125°15'1413.5
2016-May-07 00:34N 46°10' W 125°16'1413.8
2016-May-06 23:33N 46°24' W 125°16'1414.3
2016-May-06 22:33N 46°38' W 125°17'1414.4
2016-May-06 21:34N 46°53' W 125°17'1514.8
2016-May-06 20:31N 47°08' W 125°18'1414.7
2016-May-06 19:33N 47°22' W 125°18'1514.7
2016-May-06 18:34N 47°37' W 125°19'1414.3
2016-May-06 17:33N 47°51' W 125°19'1615.1
2016-May-06 16:29N 48°07' W 125°20'1414.6
2016-May-06 15:33N 48°20' W 125°12'1514.9
2016-May-06 14:33N 48°31' W 124°56'2517.1
2016-May-06 13:05N 48°24' W 124°20'1116.5
2016-May-06 12:24N 48°20' W 124°04'1315.7
2016-May-06 11:33N 48°16' W 123°45'1312.8
2016-May-06 10:33N 48°20' W 123°26'1111.1
2016-May-06 09:34N 48°26' W 123°12'1616.4
2016-May-06 08:34N 48°43' W 123°14'1111.3
2016-May-06 07:33N 48°53' W 123°07'1514.8
2016-May-06 06:33N 49°06' W 123°20'1110.9
2016-May-06 05:33N 49°08' W 123°04'6 6.0
2016-May-06 04:31N 49°11' W 122°55'0 0.0
2016-May-06 03:31N 49°11' W 122°55'0 0.0
2016-May-06 02:31N 49°11' W 122°55'0 0.0
2016-May-06 01:31N 49°11' W 122°55'0 0.0
2016-May-06 00:31N 49°11' W 122°55'0 0.0
2016-May-05 23:31N 49°11' W 122°55'0 0.0
2016-May-05 22:33N 49°11' W 122°55'6 6.1
2016-May-05 21:33N 49°08' W 123°03'1111.2
2016-May-05 20:33N 49°05' W 123°20'1312.6
2016-May-05 19:34N 48°56' W 123°07'1312.5
2016-May-05 18:33N 48°43' W 123°09'1313.3
2016-May-05 17:34N 48°30' W 123°10'1212.0
2016-May-05 16:33N 48°22' W 123°23'9 8.9
2016-May-05 15:33N 48°14' W 123°30'1211.5
2016-May-05 14:32N 48°13' W 123°48'5012.6
2016-May-05 10:33N 48°29' W 124°60'1413.6
2016-May-05 09:33N 48°29' W 125°20'1414.0
2016-May-05 08:33N 48°28' W 125°41'1414.3
2016-May-05 07:33N 48°29' W 126°03'1414.1
2016-May-05 06:33N 48°29' W 126°24'  

Dump ship's entire track history